Aviation Digital Data Service (ADDS)

Output produced by METARs form (0748 UTC 23 July 2014)
found at http://www.aviationweather.gov/adds/metars/
 
KJST 230654Z AUTO 21004KT 9SM FEW026 21/19 A3009 RMK AO2 SLP174 T02060194
KJST 230554Z AUTO 25004KT 10SM CLR 20/19 A3011 RMK AO2 SLP179 T02000189 10250 20200 55003
KJST 230454Z AUTO 18005KT 10SM CLR 21/19 A3011 RMK AO2 SLP177 T02110194 402670183
KJST 230354Z AUTO 20005KT 10SM CLR 22/19 A3012 RMK AO2 SLP181 T02170194
KJST 230254Z AUTO 16007KT 10SM CLR 22/20 A3012 RMK AO2 SLP184 T02170200 58004
KJST 230154Z AUTO 18003KT 10SM SCT036 22/20 A3014 RMK AO2 SLP190 T02220200
KJST 230054Z AUTO 16004KT 10SM CLR 23/21 A3014 RMK AO2 SLP190 T02280206
KJST 222354Z AUTO 00000KT 10SM SCT037 24/21 A3013 RMK AO2 SLP189 60000 T02440206 10261 20239 55004
KJST 222254Z AUTO 14004KT 10SM BKN040 OVC060 24/20 A3013 RMK AO2 RAB2159E08 SLP190 P0000 T02440200
KJST 222154Z AUTO 17006KT 10SM FEW048 BKN060 OVC080 25/19 A3014 RMK AO2 SLP191 T02500194
KJST 222054Z AUTO 17009KT 10SM FEW055 SCT065 OVC080 24/20 A3015 RMK AO2 SLP195 T02440200 58007
KJST 221954Z AUTO 16009KT 10SM BKN060 OVC090 24/19 A3016 RMK AO2 SLP199 T02440194
KJST 221854Z AUTO 14007KT 10SM FEW050 BKN095 26/21 A3017 RMK AO2 SLP202 T02560206
KJST 221810Z AUTO 17010KT 10SM SCT027 BKN047 OVC080 26/19 A3017 RMK AO2 T02560194
KJST 221754Z AUTO 16005KT 10SM BKN029 BKN050 26/19 A3017 RMK AO2 SLP201 T02610194 10267 20200 58014
KJST 221654Z AUTO VRB04KT 10SM SCT033 BKN080 27/18 A3019 RMK AO2 SLP206 T02670183
KJST 221554Z AUTO 00000KT 10SM FEW024 26/19 A3020 RMK AO2 SLP211 T02560189
KJST 221454Z AUTO 00000KT 10SM CLR 24/19 A3021 RMK AO2 SLP217 T02390189 58005
KJST 221354Z AUTO 22004KT 10SM CLR 22/18 A3022 RMK AO2 SLP220 T02220183
KJST 221254Z AUTO 23006KT 10SM CLR 21/18 A3023 RMK AO2 SLP225 T02110183
KJST 221154Z AUTO 20005KT 8SM SCT006 20/18 A3023 RMK AO2 SLP223 70005 T02000183 10200 20183 52010
KJST 221141Z AUTO 20004KT 8SM BKN006 19/18 A3023 RMK AO2 T01940183
KJST 221132Z AUTO 21003KT 7SM SCT006 19/18 A3023 RMK AO2 T01940183
KJST 221054Z AUTO 20004KT 7SM CLR 19/18 A3022 RMK AO2 SLP220 T01890178
KJST 220954Z AUTO 19004KT 8SM CLR 18/17 A3021 RMK AO2 SLP216 T01830172
KJST 220854Z AUTO 19005KT 9SM CLR 19/18 A3020 RMK AO2 SLP213 T01890178 56003
KJST 220754Z AUTO 19004KT 8SM CLR 19/18 A3020 RMK AO2 SLP212 T01890178
KJST 220654Z AUTO 17004KT 8SM CLR 19/18 A3020 RMK AO2 SLP211 T01890178 TSNO
KJST 220554Z AUTO 20005KT 9SM FEW010 19/18 A3021 RMK AO2 SLP216 T01940183 10222 20194 58002
KJST 220454Z AUTO 19006KT 8SM CLR 19/18 A3022 RMK AO2 SLP219 T01940183 402500172
KJST 220354Z AUTO 16009KT 9SM CLR 20/18 A3022 RMK AO2 SLP219 T02000183
KJST 220254Z AUTO 15009KT 10SM CLR 20/18 A3022 RMK AO2 SLP219 T02000183 51005
KJST 220154Z AUTO 14006KT 10SM CLR 21/18 A3021 RMK AO2 SLP219 T02060183
KJST 220054Z AUTO 15005KT 10SM BKN042 21/19 A3021 RMK AO2 SLP216 T02110189
KJST 212354Z AUTO 13004KT 10SM SCT016 22/19 A3020 RMK AO2 SLP213 60005 T02220194 10250 20211 51002
KJST 212254Z AUTO 13004KT 10SM SCT022 SCT030 BKN044 23/20 A3020 RMK AO2 SLP212 T02280200
KJST 212251Z AUTO VRB03KT 10SM FEW022 SCT027 BKN046 23/20 A3020 RMK AO2
KJST 212241Z AUTO VRB03KT 10SM BKN024 BKN030 BKN060 22/20 A3020 RMK AO2 T02220200
KJST 212154Z AUTO 09003KT 10SM FEW027 BKN050 22/19 A3019 RMK AO2 RAE18 SLP212 P0001 T02220194
KJST 212126Z AUTO 07005KT 10SM FEW025 SCT033 22/19 A3019 RMK AO2 RAE18 P0001 T02220194
KJST 212105Z AUTO 11007KT 5SM -RA OVC023 22/18 A3019 RMK AO2 P0001 T02170183
KJST 212054Z AUTO 04010KT 2 1/2SM RA OVC024 22/18 A3019 RMK AO2 VIS 1 3/4V5 RAB45 SLP213 P0004 60004 T02170183 55004
KJST 212038Z AUTO 03004KT 10SM BKN023 OVC036 23/18 A3019 RMK AO2 T02330183
KJST 212005Z AUTO VRB03KT 10SM BKN030 BKN036 24/18 A3019 RMK AO2 T02440183
KJST 211954Z AUTO 09003KT 10SM BKN028 BKN036 24/18 A3019 RMK AO2 SLP209 T02440178